West Camp, New York
Current Conditions -  °F | °C
As of 4:53 PM on Saturday 20 Dec 2014 (Local Time) from KPOU Reporting Station
Overcast Overcast  
Wind Chill: 24°   Ceiling: 3300
Heat Index: 30°   Visibility: 10mi
Dew Point: 19°   Wind: 6mph
Humidity: 64%   Direction: 350°N
Pressure: 30.27"   Gusts: NA
Location:  42.12°N, 73.94°W
Report Text: KPOU 202153Z 35005KT 10SM OVC033 M01/M07 A3027 RMK AO2 SLP251 T10111072
Loading
Personal Weather Stations






























Interactive Weather Map New forecast layout! Learn more

10-Day Weather Forecast

Advertisements
Track Severe Weather on mobile